Ce Niriis — A8GG6 — position and weather

sailwx.info

Track history (hours):
 
Tides and Currents Weather Stations Pressure Air Temp Water Temp Dewpoint Dewpoint Depression Visibility Wind Speed Wind Dir Waves Ship Positions

Ce Niriis

Last reported at 2017-Nov-15 01:54 UTC. Time now 2017-Nov-19 05:05 UTC.
Position N 40°29' W 009°56'.

Length 243 m; draft 10.7 m.

Type: Ship (hazmat cat A). MMSI: 636012570.

Date/timePositionNaut miles runAvg speedWind from/ knotsBaromVisibWave heightAir tempDewpointWater temp
2017-Nov-15 01:54N 40°29' W 009°56'513.0
2017-Nov-15 01:30N 40°24' W 009°56'4412.9
2017-Nov-14 22:04N 39°40' W 009°57'213.0
2017-Nov-14 21:56N 39°38' W 009°57'613.0
2017-Nov-14 21:30N 39°32' W 009°57'712.7
2017-Nov-14 20:59N 39°26' W 009°57'612.5
2017-Nov-14 20:30N 39°20' W 009°56'612.1
2017-Nov-14 20:00N 39°14' W 009°57'612.7
2017-Nov-14 19:30N 39°07' W 009°57'612.6
2017-Nov-14 19:00N 39°01' W 009°56'612.4
2017-Nov-14 18:30N 38°55' W 009°56'612.6
2017-Nov-14 18:00N 38°49' W 009°56'612.7
2017-Nov-14 17:30N 38°42' W 009°56'612.6
2017-Nov-14 17:00N 38°36' W 009°53'612.2
2017-Nov-14 16:30N 38°31' W 009°51'612.6
2017-Nov-14 16:00N 38°24' W 009°49'612.3
2017-Nov-14 15:30N 38°18' W 009°47'612.3
2017-Nov-14 14:59N 38°12' W 009°46'612.6
2017-Nov-14 14:30N 38°06' W 009°44'612.7
2017-Nov-14 14:00N 37°60' W 009°42'2113.0
2017-Nov-14 12:26N 37°40' W 009°37'713.2
2017-Nov-14 11:56N 37°34' W 009°35'612.9
2017-Nov-14 11:28N 37°28' W 009°33'45011.2
2017-Nov-12 19:09N 36°35' W 000°13'212.5
2017-Nov-12 19:00N 36°35' W 000°11'612.6
2017-Nov-12 18:30N 36°37' W 000°04'612.6
2017-Nov-12 18:00N 36°37' E 000°04'612.5
2017-Nov-12 17:30N 36°39' E 000°12'612.2
2017-Nov-12 17:00N 36°40' E 000°19'612.0
2017-Nov-12 16:30N 36°40' E 000°27'  
2017-Nov-10 07:35N 36°36' E 013°57'212.0
2017-Nov-10 07:24N 36°35' E 013°59'512.3
2017-Nov-10 07:00N 36°33' E 014°05'612.3
2017-Nov-10 06:30N 36°31' E 014°12'612.3
2017-Nov-10 06:00N 36°29' E 014°20'611.9
2017-Nov-10 05:30N 36°27' E 014°27'611.7
2017-Nov-10 05:00N 36°26' E 014°34'612.0
2017-Nov-10 04:30N 36°24' E 014°41'612.4
2017-Nov-10 04:00N 36°22' E 014°48'  
Track history (hours):
 
Tides and Currents Weather Stations Pressure Air Temp Water Temp Dewpoint Dewpoint Depression Visibility Wind Speed Wind Dir Waves Ship Positions

Ce Niriis

Last reported at 2017-Nov-15 01:54 UTC. Time now 2017-Nov-19 05:05 UTC.
Position N 40°29' W 009°56'.

Length 243 m; draft 10.7 m.

Type: Ship (hazmat cat A). MMSI: 636012570.

Date/timePositionNaut miles runAvg speedWind from/ knotsBaromVisibWave heightAir tempDewpointWater temp
2017-Nov-15 01:54N 40°29' W 009°56'513.0
2017-Nov-15 01:30N 40°24' W 009°56'4412.9
2017-Nov-14 22:04N 39°40' W 009°57'213.0
2017-Nov-14 21:56N 39°38' W 009°57'613.0
2017-Nov-14 21:30N 39°32' W 009°57'712.7
2017-Nov-14 20:59N 39°26' W 009°57'612.5
2017-Nov-14 20:30N 39°20' W 009°56'612.1
2017-Nov-14 20:00N 39°14' W 009°57'612.7
2017-Nov-14 19:30N 39°07' W 009°57'612.6
2017-Nov-14 19:00N 39°01' W 009°56'612.4
2017-Nov-14 18:30N 38°55' W 009°56'612.6
2017-Nov-14 18:00N 38°49' W 009°56'612.7
2017-Nov-14 17:30N 38°42' W 009°56'612.6
2017-Nov-14 17:00N 38°36' W 009°53'612.2
2017-Nov-14 16:30N 38°31' W 009°51'612.6
2017-Nov-14 16:00N 38°24' W 009°49'612.3
2017-Nov-14 15:30N 38°18' W 009°47'612.3
2017-Nov-14 14:59N 38°12' W 009°46'612.6
2017-Nov-14 14:30N 38°06' W 009°44'612.7
2017-Nov-14 14:00N 37°60' W 009°42'2113.0
2017-Nov-14 12:26N 37°40' W 009°37'713.2
2017-Nov-14 11:56N 37°34' W 009°35'612.9
2017-Nov-14 11:28N 37°28' W 009°33'45011.2
2017-Nov-12 19:09N 36°35' W 000°13'212.5
2017-Nov-12 19:00N 36°35' W 000°11'612.6
2017-Nov-12 18:30N 36°37' W 000°04'612.6
2017-Nov-12 18:00N 36°37' E 000°04'612.5
2017-Nov-12 17:30N 36°39' E 000°12'612.2
2017-Nov-12 17:00N 36°40' E 000°19'612.0
2017-Nov-12 16:30N 36°40' E 000°27'  
2017-Nov-10 07:35N 36°36' E 013°57'212.0
2017-Nov-10 07:24N 36°35' E 013°59'512.3
2017-Nov-10 07:00N 36°33' E 014°05'612.3
2017-Nov-10 06:30N 36°31' E 014°12'612.3
2017-Nov-10 06:00N 36°29' E 014°20'611.9
2017-Nov-10 05:30N 36°27' E 014°27'611.7
2017-Nov-10 05:00N 36°26' E 014°34'612.0
2017-Nov-10 04:30N 36°24' E 014°41'612.4
2017-Nov-10 04:00N 36°22' E 014°48'  

Dump ship's entire track history